createdAt,value
2023-03-06T00:00:51.858Z,64.75
2023-03-06T00:03:22.640Z,64.76
2023-03-06T00:05:51.023Z,65.11
2023-03-06T00:08:19.188Z,65.04
2023-03-06T00:10:47.454Z,65.14
2023-03-06T00:13:18.817Z,65.09
2023-03-06T00:15:47.226Z,65.25
2023-03-06T00:18:16.015Z,65.31
2023-03-06T00:20:45.686Z,65.61
2023-03-06T00:23:14.069Z,65.71
2023-03-06T00:25:43.805Z,65.59
2023-03-06T00:28:14.817Z,66.85
2023-03-06T00:30:43.825Z,66.71
2023-03-06T00:33:12.078Z,66.46
2023-03-06T00:35:40.744Z,66.69
2023-03-06T00:38:12.167Z,67.43
2023-03-06T00:40:40.503Z,67.74
2023-03-06T00:43:08.601Z,67.79
2023-03-06T00:45:37.145Z,67.68
2023-03-06T00:48:06.069Z,67.80
2023-03-06T00:50:35.155Z,67.75
2023-03-06T00:53:03.256Z,67.70
2023-03-06T00:55:33.435Z,67.33
2023-03-06T00:58:01.732Z,67.09
2023-03-06T01:00:30.080Z,66.97
2023-03-06T01:02:58.164Z,66.72
2023-03-06T01:05:26.527Z,66.45
2023-03-06T01:07:54.709Z,66.24
2023-03-06T01:10:23.146Z,66.19
2023-03-06T01:12:52.556Z,66.32
2023-03-06T01:15:21.747Z,66.54
2023-03-06T01:17:53.499Z,66.25
2023-03-06T01:20:21.926Z,65.94
2023-03-06T01:22:49.944Z,66.43
2023-03-06T01:25:18.450Z,66.56
2023-03-06T01:27:46.719Z,66.52
2023-03-06T01:30:16.540Z,66.84
2023-03-06T01:32:44.518Z,66.51
2023-03-06T01:35:13.161Z,66.09
2023-03-06T01:37:41.708Z,66.35
2023-03-06T01:40:12.158Z,66.42
2023-03-06T01:42:40.308Z,66.48
2023-03-06T01:45:30.705Z,66.77
2023-03-06T01:48:00.383Z,66.80
2023-03-06T01:50:29.219Z,66.96
2023-03-06T01:52:59.382Z,67.39
2023-03-06T01:55:29.756Z,67.67
2023-03-06T01:57:59.158Z,67.65
2023-03-06T02:00:30.197Z,67.85
2023-03-06T02:03:05.134Z,67.69
2023-03-06T02:05:33.609Z,67.77
2023-03-06T02:08:03.387Z,68.22
2023-03-06T02:10:32.110Z,68.07
2023-03-06T02:13:00.525Z,68.12
2023-03-06T02:15:30.037Z,68.28
2023-03-06T02:17:58.299Z,68.09
2023-03-06T02:20:30.942Z,67.98
2023-03-06T02:23:03.144Z,67.74
2023-03-06T02:25:38.516Z,67.86
2023-03-06T02:28:08.171Z,67.73
2023-03-06T02:30:37.611Z,67.55
2023-03-06T02:33:06.604Z,67.67
2023-03-06T02:35:36.646Z,67.22
2023-03-06T02:38:07.545Z,67.49
2023-03-06T02:40:37.657Z,67.17
2023-03-06T02:43:06.497Z,67.27
2023-03-06T02:45:38.177Z,67.26
2023-03-06T02:48:07.184Z,67.33
2023-03-06T02:50:35.606Z,67.05
2023-03-06T02:53:03.731Z,67.22
2023-03-06T02:55:32.616Z,67.40
2023-03-06T02:58:03.371Z,67.40
2023-03-06T03:00:32.734Z,67.51
2023-03-06T03:03:03.809Z,67.65
2023-03-06T03:05:32.718Z,67.55
2023-03-06T03:08:07.951Z,67.32
2023-03-06T03:10:37.192Z,67.28
2023-03-06T03:13:06.571Z,67.07
2023-03-06T03:15:36.250Z,66.98
2023-03-06T03:18:04.791Z,67.20
2023-03-06T03:20:33.220Z,67.31
2023-03-06T03:23:01.380Z,67.29
2023-03-06T03:25:29.683Z,67.17
2023-03-06T03:27:59.479Z,67.16
2023-03-06T03:30:29.568Z,67.20
2023-03-06T03:32:57.699Z,66.81
2023-03-06T03:35:26.668Z,67.02
2023-03-06T03:37:55.192Z,67.35
2023-03-06T03:40:23.831Z,67.50
2023-03-06T03:42:52.676Z,67.24
2023-03-06T03:45:22.158Z,67.50
2023-03-06T03:47:51.735Z,67.28
2023-03-06T03:50:20.564Z,67.46
2023-03-06T03:52:49.033Z,67.43
2023-03-06T03:55:17.824Z,67.27
2023-03-06T03:57:45.908Z,67.36
2023-03-06T04:00:16.308Z,67.18
2023-03-06T04:03:00.748Z,67.24
2023-03-06T04:05:34.157Z,67.46
2023-03-06T04:08:05.422Z,67.53
2023-03-06T04:10:36.394Z,67.70
2023-03-06T04:13:04.892Z,67.63
2023-03-06T04:15:33.484Z,67.87
2023-03-06T04:18:04.204Z,67.60
2023-03-06T04:20:32.745Z,67.61
2023-03-06T04:23:02.024Z,67.69
2023-03-06T04:25:30.450Z,67.57
2023-03-06T04:28:00.302Z,67.44
2023-03-06T04:30:29.314Z,67.20
2023-03-06T04:32:57.688Z,67.68
2023-03-06T04:35:28.034Z,67.72
2023-03-06T04:38:01.610Z,67.83
2023-03-06T04:40:35.157Z,67.67
2023-03-06T04:43:04.762Z,67.88
2023-03-06T04:45:34.004Z,67.81
2023-03-06T04:48:02.027Z,68.27
2023-03-06T04:50:32.582Z,68.55
2023-03-06T04:53:01.481Z,68.50
2023-03-06T04:55:29.995Z,68.46
2023-03-06T04:57:58.889Z,68.18
2023-03-06T05:00:30.407Z,68.20
2023-03-06T05:02:59.792Z,68.47
2023-03-06T05:05:28.676Z,68.51
2023-03-06T05:07:58.150Z,68.57
2023-03-06T05:10:26.466Z,68.27
2023-03-06T05:12:54.466Z,68.22
2023-03-06T05:15:22.905Z,68.40
2023-03-06T05:17:50.989Z,68.60
2023-03-06T05:20:19.696Z,68.95
2023-03-06T05:22:47.826Z,69.29
2023-03-06T05:25:17.626Z,69.32
2023-03-06T05:27:45.801Z,69.53
2023-03-06T05:30:15.217Z,70.22
2023-03-06T05:32:43.681Z,70.38
2023-03-06T05:35:17.958Z,70.79
2023-03-06T05:37:46.464Z,70.99
2023-03-06T05:40:17.185Z,71.21
2023-03-06T05:42:45.632Z,71.60
2023-03-06T05:45:14.000Z,71.43
2023-03-06T05:47:42.054Z,71.38
2023-03-06T05:50:11.688Z,71.13
2023-03-06T05:52:40.500Z,70.95
2023-03-06T05:55:11.032Z,70.80
2023-03-06T05:57:40.518Z,70.63
2023-03-06T06:00:10.351Z,70.11
2023-03-06T06:02:41.436Z,70.31
2023-03-06T06:05:12.969Z,70.17
2023-03-06T06:07:41.460Z,70.15
2023-03-06T06:10:11.501Z,69.79
2023-03-06T06:12:40.878Z,70.88
2023-03-06T06:15:09.753Z,70.95
2023-03-06T06:17:37.738Z,70.31
2023-03-06T06:20:06.873Z,70.22
2023-03-06T06:22:37.134Z,69.85
2023-03-06T06:25:06.155Z,69.94
2023-03-06T06:27:34.177Z,69.78
2023-03-06T06:30:04.170Z,69.56
2023-03-06T06:32:32.316Z,69.58
2023-03-06T06:35:00.747Z,69.94
2023-03-06T06:37:28.877Z,69.80
2023-03-06T06:39:57.343Z,69.73
2023-03-06T06:42:38.965Z,69.74
2023-03-06T06:45:11.409Z,69.53
2023-03-06T06:47:41.214Z,69.64
2023-03-06T06:50:12.724Z,70.00
2023-03-06T06:52:40.868Z,70.09
2023-03-06T06:55:10.053Z,70.34
2023-03-06T06:57:38.141Z,70.84
2023-03-06T07:00:07.752Z,71.26
2023-03-06T07:02:37.293Z,70.89
2023-03-06T07:05:06.316Z,71.18
2023-03-06T07:07:36.420Z,71.88
2023-03-06T07:10:06.456Z,72.43
2023-03-06T07:12:35.229Z,72.44
2023-03-06T07:15:04.425Z,72.57
2023-03-06T07:17:32.643Z,71.41
2023-03-06T07:20:02.783Z,71.29
2023-03-06T07:22:41.466Z,71.33
2023-03-06T07:25:17.274Z,71.40
2023-03-06T07:27:52.713Z,70.90
2023-03-06T07:30:25.389Z,70.80
2023-03-06T07:32:54.963Z,70.79
2023-03-06T07:35:27.377Z,70.59
2023-03-06T07:37:55.917Z,70.39
2023-03-06T07:40:25.087Z,70.35
2023-03-06T07:42:56.529Z,70.14
2023-03-06T07:45:36.135Z,70.19
2023-03-06T07:48:05.678Z,70.38
2023-03-06T07:50:36.231Z,70.30
2023-03-06T07:53:04.339Z,70.20
2023-03-06T07:55:32.577Z,69.88
2023-03-06T07:58:00.756Z,70.37
2023-03-06T08:00:29.149Z,70.78
2023-03-06T08:02:57.250Z,70.90
2023-03-06T08:05:25.581Z,70.90
2023-03-06T08:07:56.392Z,71.23
2023-03-06T08:10:24.646Z,71.69
2023-03-06T08:12:52.734Z,72.56
2023-03-06T08:15:21.173Z,72.49
2023-03-06T08:17:49.328Z,72.01
2023-03-06T08:20:18.503Z,72.47
2023-03-06T08:22:46.720Z,72.39
2023-03-06T08:25:16.554Z,72.67
2023-03-06T08:27:46.651Z,72.65
2023-03-06T08:30:15.301Z,72.45
2023-03-06T08:32:43.395Z,72.29
2023-03-06T08:35:11.914Z,72.00
2023-03-06T08:37:40.131Z,72.27
2023-03-06T08:40:10.149Z,73.25
2023-03-06T08:42:39.615Z,73.42
2023-03-06T08:45:09.405Z,72.69
2023-03-06T08:47:37.462Z,71.49
2023-03-06T08:50:06.359Z,71.27
2023-03-06T08:52:34.373Z,69.96
2023-03-06T08:55:03.529Z,69.11
2023-03-06T08:57:31.870Z,68.52
2023-03-06T09:00:01.588Z,69.39
2023-03-06T09:02:29.751Z,69.40
2023-03-06T09:04:59.370Z,70.06
2023-03-06T09:07:27.439Z,70.15
2023-03-06T09:09:57.096Z,69.42
2023-03-06T09:12:25.235Z,68.91
2023-03-06T09:14:53.883Z,69.88
2023-03-06T09:17:23.287Z,69.69
2023-03-06T09:19:52.343Z,69.75
2023-03-06T09:22:20.379Z,69.89
2023-03-06T09:24:49.086Z,68.85
2023-03-06T09:27:17.300Z,68.79
2023-03-06T09:29:45.601Z,68.43
2023-03-06T09:32:13.875Z,69.36
2023-03-06T09:34:45.982Z,69.96
2023-03-06T09:37:15.293Z,69.15
2023-03-06T09:39:45.180Z,68.91
2023-03-06T09:42:16.936Z,68.74
2023-03-06T09:44:47.408Z,69.59
2023-03-06T09:47:28.649Z,69.42
2023-03-06T09:50:20.241Z,69.31
2023-03-06T09:53:01.701Z,68.33
2023-03-06T09:55:32.325Z,68.49
2023-03-06T09:58:07.095Z,68.62
2023-03-06T10:00:40.568Z,68.42
2023-03-06T10:03:22.758Z,68.16
2023-03-06T10:05:54.833Z,69.05
2023-03-06T10:08:26.444Z,69.50
2023-03-06T10:11:01.930Z,69.01
2023-03-06T10:13:36.747Z,68.39
2023-03-06T10:16:14.277Z,68.92
2023-03-06T10:18:42.424Z,68.09
2023-03-06T10:21:24.097Z,67.19
2023-03-06T10:23:54.442Z,67.04
2023-03-06T10:26:25.118Z,67.33
2023-03-06T10:29:02.444Z,67.56
2023-03-06T10:31:30.863Z,67.93
2023-03-06T10:34:00.134Z,68.00
2023-03-06T10:36:30.417Z,68.11
2023-03-06T10:38:59.577Z,67.95
2023-03-06T10:41:29.721Z,66.88
2023-03-06T10:44:23.632Z,67.00
2023-03-06T10:46:53.628Z,66.33
2023-03-06T10:49:30.446Z,67.13
2023-03-06T10:52:02.745Z,67.37
2023-03-06T10:54:32.801Z,67.49
2023-03-06T10:57:18.774Z,67.52
2023-03-06T10:59:52.211Z,66.34
2023-03-06T11:02:28.240Z,65.37
2023-03-06T11:04:57.284Z,64.06
2023-03-06T11:07:28.403Z,64.44
2023-03-06T11:10:03.271Z,64.87
2023-03-06T11:12:32.995Z,65.54
2023-03-06T11:15:18.417Z,64.70
2023-03-06T11:17:55.258Z,64.50
2023-03-06T11:20:25.838Z,63.97
2023-03-06T11:22:59.576Z,64.03
2023-03-06T11:25:31.444Z,64.44
2023-03-06T11:28:01.840Z,65.24
2023-03-06T11:30:36.098Z,64.76
2023-03-06T11:33:11.150Z,64.62
2023-03-06T11:35:48.127Z,65.22
2023-03-06T11:38:21.744Z,65.15
2023-03-06T11:40:53.811Z,65.86
2023-03-06T11:43:24.777Z,63.67
2023-03-06T11:45:58.054Z,63.18
2023-03-06T11:48:29.835Z,63.48
2023-03-06T11:51:04.830Z,61.88
2023-03-06T11:53:37.740Z,62.48
2023-03-06T11:56:12.430Z,63.28
2023-03-06T11:58:53.119Z,63.60
2023-03-06T12:01:25.243Z,63.53
2023-03-06T12:03:57.947Z,63.89
2023-03-06T12:06:33.034Z,62.55
2023-03-06T12:09:17.149Z,62.36
2023-03-06T12:11:47.464Z,62.71
2023-03-06T12:14:26.134Z,62.33
2023-03-06T12:17:04.006Z,62.61
2023-03-06T12:19:42.325Z,63.00
2023-03-06T12:22:23.131Z,62.16
2023-03-06T12:25:06.110Z,63.09
2023-03-06T12:27:42.588Z,63.49
2023-03-06T12:30:39.543Z,64.28
2023-03-06T12:33:16.063Z,63.77
2023-03-06T12:36:07.025Z,64.16
2023-03-06T12:38:46.547Z,62.79
2023-03-06T12:41:25.122Z,63.80
2023-03-06T12:44:02.433Z,62.80
2023-03-06T12:46:31.125Z,62.18
2023-03-06T12:49:04.705Z,62.67
2023-03-06T12:51:33.921Z,62.74
2023-03-06T12:54:03.227Z,61.86
2023-03-06T12:56:34.105Z,61.52
2023-03-06T12:59:02.875Z,61.23
2023-03-06T13:01:51.826Z,61.15
2023-03-06T13:04:29.753Z,60.58
2023-03-06T13:07:06.995Z,59.71
2023-03-06T13:09:39.896Z,60.42
2023-03-06T13:12:27.154Z,60.26
2023-03-06T13:14:58.387Z,61.18
2023-03-06T13:17:44.401Z,60.47
2023-03-06T13:20:29.925Z,59.06
2023-03-06T13:22:58.761Z,60.22
2023-03-06T13:25:39.706Z,60.46
2023-03-06T13:28:24.141Z,60.99
2023-03-06T13:30:53.268Z,61.31
2023-03-06T13:33:53.644Z,61.08
2023-03-06T13:36:24.965Z,61.18
2023-03-06T13:38:58.548Z,61.25
2023-03-06T13:41:43.804Z,61.17
2023-03-06T13:44:49.577Z,60.29
2023-03-06T13:47:31.106Z,61.27
2023-03-06T13:49:59.899Z,61.66
2023-03-06T13:52:37.003Z,62.29
2023-03-06T13:55:13.648Z,62.57
2023-03-06T13:57:52.077Z,63.19
2023-03-06T14:00:55.761Z,64.00
2023-03-06T14:03:50.970Z,64.81
2023-03-06T14:06:42.348Z,65.28
2023-03-06T14:09:16.835Z,65.82
2023-03-06T14:11:50.857Z,66.82
2023-03-06T14:14:19.245Z,67.46
2023-03-06T14:16:50.871Z,69.17
2023-03-06T14:19:25.466Z,70.69
2023-03-06T14:21:57.761Z,72.65
2023-03-06T14:24:32.713Z,73.93
2023-03-06T14:27:01.092Z,73.53
2023-03-06T14:29:30.449Z,73.62
2023-03-06T14:32:00.306Z,74.12
2023-03-06T14:34:31.618Z,74.99
2023-03-06T14:37:01.713Z,75.60
2023-03-06T14:39:35.132Z,76.08
2023-03-06T14:42:08.231Z,75.19
2023-03-06T14:44:36.433Z,75.97
2023-03-06T14:47:23.182Z,76.71
2023-03-06T14:50:24.066Z,77.04
2023-03-06T14:52:56.850Z,77.12
2023-03-06T14:55:27.634Z,76.72
2023-03-06T14:57:58.881Z,76.95
2023-03-06T15:00:31.136Z,76.90
2023-03-06T15:02:59.811Z,76.63
2023-03-06T15:05:30.471Z,76.41
2023-03-06T15:08:02.964Z,76.85
2023-03-06T15:10:32.501Z,77.16
2023-03-06T15:13:09.253Z,76.77
2023-03-06T15:15:37.311Z,77.40
2023-03-06T15:18:28.598Z,78.18
2023-03-06T15:21:07.742Z,77.33
2023-03-06T15:23:38.206Z,77.04
2023-03-06T15:26:21.177Z,76.00
2023-03-06T15:29:03.382Z,76.09
2023-03-06T15:31:37.943Z,76.00
2023-03-06T15:34:27.603Z,76.79
2023-03-06T15:36:58.652Z,76.38
2023-03-06T15:39:29.222Z,76.37
2023-03-06T15:41:58.648Z,76.21
2023-03-06T15:44:27.528Z,76.07
2023-03-06T15:47:07.764Z,76.04
2023-03-06T15:49:37.996Z,74.78
2023-03-06T15:52:08.056Z,75.05
2023-03-06T15:54:36.599Z,75.96
2023-03-06T15:57:06.629Z,74.88
2023-03-06T15:59:39.591Z,74.52
2023-03-06T16:02:15.671Z,75.54
2023-03-06T16:04:44.321Z,74.93
2023-03-06T16:07:14.003Z,75.50
2023-03-06T16:09:42.551Z,75.82
2023-03-06T16:12:16.221Z,75.90
2023-03-06T16:14:44.918Z,75.61
2023-03-06T16:17:13.803Z,76.28
2023-03-06T16:19:42.968Z,75.06
2023-03-06T16:22:11.136Z,75.86
2023-03-06T16:24:41.646Z,75.50
2023-03-06T16:27:16.719Z,74.99
2023-03-06T16:29:45.249Z,74.31
2023-03-06T16:32:13.646Z,73.42
2023-03-06T16:34:41.919Z,73.28
2023-03-06T16:37:10.939Z,73.18
2023-03-06T16:39:40.690Z,72.53
2023-03-06T16:42:08.809Z,72.39
2023-03-06T16:44:37.200Z,72.58
2023-03-06T16:47:05.725Z,72.66
2023-03-06T16:49:34.390Z,72.61
2023-03-06T16:52:04.457Z,72.06
2023-03-06T16:54:32.787Z,72.21
2023-03-06T16:57:02.234Z,70.58
2023-03-06T16:59:31.612Z,69.90
2023-03-06T17:02:00.035Z,69.91
2023-03-06T17:04:28.483Z,70.97
2023-03-06T17:06:56.650Z,70.52
2023-03-06T17:09:25.106Z,71.59
2023-03-06T17:11:53.065Z,71.77
2023-03-06T17:14:22.826Z,71.37
2023-03-06T17:16:53.574Z,71.42
2023-03-06T17:19:23.121Z,71.21
2023-03-06T17:21:51.573Z,71.72
2023-03-06T17:24:29.949Z,72.58
2023-03-06T17:27:18.123Z,71.32
2023-03-06T17:30:24.847Z,69.67
2023-03-06T17:33:03.187Z,69.51
2023-03-06T17:35:49.851Z,69.75
2023-03-06T17:38:18.073Z,69.71
2023-03-06T17:40:46.511Z,68.39
2023-03-06T17:43:22.463Z,67.11
2023-03-06T17:46:05.516Z,67.39
2023-03-06T17:49:04.996Z,67.16
2023-03-06T17:51:51.610Z,66.67
2023-03-06T17:54:43.084Z,65.98
2023-03-06T17:57:11.437Z,66.27
2023-03-06T17:59:39.593Z,66.69
2023-03-06T18:02:10.986Z,66.21
2023-03-06T18:04:39.156Z,66.42
2023-03-06T18:07:07.526Z,66.88
2023-03-06T18:09:35.827Z,65.48
2023-03-06T18:12:04.754Z,65.09
2023-03-06T18:14:33.219Z,65.03
2023-03-06T18:17:01.607Z,65.25
2023-03-06T18:19:31.142Z,64.58
2023-03-06T18:22:00.499Z,64.72
2023-03-06T18:24:28.507Z,64.51
2023-03-06T18:26:56.872Z,65.39
2023-03-06T18:29:24.985Z,65.00
2023-03-06T18:31:56.772Z,65.59
2023-03-06T18:34:25.001Z,64.31
2023-03-06T18:36:54.815Z,63.33
2023-03-06T18:39:24.604Z,64.08
2023-03-06T18:41:53.434Z,64.50
2023-03-06T18:44:21.582Z,64.09
2023-03-06T18:46:49.940Z,64.36
2023-03-06T18:49:19.890Z,63.84
2023-03-06T18:51:50.543Z,64.89
2023-03-06T18:54:20.087Z,64.56
2023-03-06T18:56:48.664Z,65.43
2023-03-06T18:59:18.883Z,65.94
2023-03-06T19:01:48.060Z,65.53
2023-03-06T19:04:16.319Z,64.61
2023-03-06T19:06:44.675Z,63.60
2023-03-06T19:09:12.783Z,63.69
2023-03-06T19:11:43.693Z,63.49
2023-03-06T19:14:11.943Z,63.63
2023-03-06T19:16:40.463Z,63.85
2023-03-06T19:19:08.619Z,64.70
2023-03-06T19:21:36.979Z,65.59
2023-03-06T19:24:06.688Z,65.19
2023-03-06T19:26:34.993Z,65.61
2023-03-06T19:29:04.472Z,65.95
2023-03-06T19:31:32.944Z,65.15
2023-03-06T19:34:01.101Z,65.42
2023-03-06T19:36:33.585Z,64.95
2023-03-06T19:39:04.242Z,65.08
2023-03-06T19:41:32.745Z,65.30
2023-03-06T19:44:02.553Z,64.77
2023-03-06T19:46:32.694Z,64.97
2023-03-06T19:49:02.161Z,64.79
2023-03-06T19:51:30.646Z,65.27
2023-03-06T19:53:59.217Z,66.12
2023-03-06T19:56:28.827Z,66.42
2023-03-06T19:58:57.309Z,66.23
2023-03-06T20:01:27.264Z,65.59
2023-03-06T20:03:58.904Z,65.21
2023-03-06T20:06:29.422Z,65.62
2023-03-06T20:08:57.624Z,65.97
2023-03-06T20:11:29.652Z,65.99
2023-03-06T20:13:58.536Z,66.16
2023-03-06T20:16:27.796Z,65.97
2023-03-06T20:18:58.982Z,66.38
2023-03-06T20:21:28.007Z,65.77
2023-03-06T20:23:57.891Z,65.94
2023-03-06T20:26:27.749Z,66.30
2023-03-06T20:28:56.220Z,65.87
2023-03-06T20:31:26.171Z,65.60
2023-03-06T20:33:57.631Z,65.14
2023-03-06T20:36:28.877Z,65.58
2023-03-06T20:38:57.627Z,66.11
2023-03-06T20:41:27.650Z,66.47
2023-03-06T20:43:55.820Z,67.61
2023-03-06T20:46:24.538Z,68.14
2023-03-06T20:48:54.153Z,68.23
2023-03-06T20:51:25.501Z,68.31
2023-03-06T20:53:53.999Z,68.05
2023-03-06T20:56:23.661Z,68.28
2023-03-06T20:58:52.400Z,67.72
2023-03-06T21:01:21.781Z,68.03
2023-03-06T21:03:50.128Z,67.54
2023-03-06T21:06:19.674Z,67.61
2023-03-06T21:08:49.751Z,67.69
2023-03-06T21:11:18.213Z,68.02
2023-03-06T21:13:46.547Z,67.98
2023-03-06T21:16:16.447Z,68.13
2023-03-06T21:18:44.768Z,68.12
2023-03-06T21:21:14.799Z,68.42
2023-03-06T21:23:43.081Z,67.37
2023-03-06T21:26:14.974Z,67.86
2023-03-06T21:28:43.355Z,67.45
2023-03-06T21:31:13.228Z,67.63
2023-03-06T21:33:41.399Z,67.20
2023-03-06T21:36:10.406Z,67.69
2023-03-06T21:38:38.459Z,67.81
2023-03-06T21:41:11.711Z,67.58
2023-03-06T21:43:41.752Z,66.68
2023-03-06T21:46:10.524Z,67.56
2023-03-06T21:48:38.616Z,67.85
2023-03-06T21:51:08.868Z,68.34
2023-03-06T21:53:37.519Z,67.94
2023-03-06T21:56:06.321Z,68.17
2023-03-06T21:58:34.518Z,68.43
2023-03-06T22:01:09.505Z,68.82
2023-03-06T22:03:37.829Z,68.94
2023-03-06T22:06:10.890Z,68.85
2023-03-06T22:08:39.025Z,69.29
2023-03-06T22:11:09.443Z,69.30
2023-03-06T22:13:37.902Z,69.35
2023-03-06T22:16:08.735Z,69.68
2023-03-06T22:18:37.185Z,69.52
2023-03-06T22:21:09.185Z,69.32
2023-03-06T22:23:37.725Z,67.80
2023-03-06T22:26:07.858Z,67.48
2023-03-06T22:28:36.072Z,67.61
2023-03-06T22:31:08.330Z,67.12
2023-03-06T22:33:36.481Z,67.09
2023-03-06T22:36:07.586Z,67.47
2023-03-06T22:38:36.374Z,67.77
2023-03-06T22:41:05.028Z,67.74
2023-03-06T22:43:33.664Z,68.15
2023-03-06T22:46:03.070Z,68.35
2023-03-06T22:48:32.835Z,69.19
2023-03-06T22:51:05.020Z,68.95
2023-03-06T22:53:33.316Z,68.78
2023-03-06T22:56:02.711Z,68.21
2023-03-06T22:58:35.501Z,68.28
2023-03-06T23:01:08.315Z,68.80
2023-03-06T23:03:38.663Z,68.58
2023-03-06T23:06:08.565Z,69.12
2023-03-06T23:08:36.746Z,69.39
2023-03-06T23:11:09.913Z,69.77
2023-03-06T23:13:57.895Z,69.82
2023-03-06T23:16:44.772Z,70.02
2023-03-06T23:19:32.842Z,70.08
2023-03-06T23:22:20.111Z,69.80
2023-03-06T23:25:07.758Z,69.54
2023-03-06T23:27:36.851Z,69.75
2023-03-06T23:30:05.915Z,69.47
2023-03-06T23:32:37.132Z,69.66
2023-03-06T23:35:07.673Z,68.59
2023-03-06T23:37:35.942Z,68.46
2023-03-06T23:40:07.716Z,68.85
2023-03-06T23:42:36.017Z,69.24
2023-03-06T23:45:04.389Z,68.97
2023-03-06T23:47:33.233Z,69.58
2023-03-06T23:50:01.243Z,69.70
2023-03-06T23:52:30.854Z,69.98
2023-03-06T23:54:58.841Z,69.63
2023-03-06T23:57:27.171Z,69.64
2023-03-06T23:59:55.270Z,69.55
